sensor_id;sensor_type;location;lat;lon;timestamp;P1;durP1;ratioP1;P2;durP2;ratioP2
43142;SDS011;28750;59.842;17.584;2023-12-04T00:00:38;3.65;;;1.92;;
43142;SDS011;28750;59.842;17.584;2023-12-04T00:03:06;4.28;;;2.45;;
43142;SDS011;28750;59.842;17.584;2023-12-04T00:05:33;3.95;;;2.35;;
43142;SDS011;28750;59.842;17.584;2023-12-04T00:08:01;3.03;;;2.15;;
43142;SDS011;28750;59.842;17.584;2023-12-04T00:10:28;4.20;;;2.38;;
43142;SDS011;28750;59.842;17.584;2023-12-04T00:12:56;5.05;;;2.38;;
43142;SDS011;28750;59.842;17.584;2023-12-04T00:15:23;3.75;;;2.08;;
43142;SDS011;28750;59.842;17.584;2023-12-04T00:17:51;4.53;;;2.20;;
43142;SDS011;28750;59.842;17.584;2023-12-04T00:20:18;4.35;;;2.15;;
43142;SDS011;28750;59.842;17.584;2023-12-04T00:22:46;5.40;;;2.50;;
43142;SDS011;28750;59.842;17.584;2023-12-04T00:25:13;3.33;;;1.80;;
43142;SDS011;28750;59.842;17.584;2023-12-04T00:27:40;3.20;;;1.88;;
43142;SDS011;28750;59.842;17.584;2023-12-04T00:30:08;4.63;;;2.28;;
43142;SDS011;28750;59.842;17.584;2023-12-04T00:32:36;2.97;;;1.55;;
43142;SDS011;28750;59.842;17.584;2023-12-04T00:35:03;4.57;;;2.45;;
43142;SDS011;28750;59.842;17.584;2023-12-04T00:37:31;2.65;;;1.58;;
43142;SDS011;28750;59.842;17.584;2023-12-04T00:40:02;3.72;;;2.03;;
43142;SDS011;28750;59.842;17.584;2023-12-04T00:42:30;4.03;;;2.20;;
43142;SDS011;28750;59.842;17.584;2023-12-04T00:44:57;3.95;;;2.15;;
43142;SDS011;28750;59.842;17.584;2023-12-04T00:47:25;2.92;;;1.95;;
43142;SDS011;28750;59.842;17.584;2023-12-04T00:49:52;5.07;;;2.08;;
43142;SDS011;28750;59.842;17.584;2023-12-04T00:52:20;3.90;;;2.33;;
43142;SDS011;28750;59.842;17.584;2023-12-04T00:54:47;5.32;;;2.47;;
43142;SDS011;28750;59.842;17.584;2023-12-04T00:57:14;4.03;;;1.90;;
43142;SDS011;28750;59.842;17.584;2023-12-04T00:59:42;5.88;;;2.22;;
43142;SDS011;28750;59.842;17.584;2023-12-04T01:02:09;3.03;;;2.17;;
43142;SDS011;28750;59.842;17.584;2023-12-04T01:04:39;3.80;;;2.15;;
43142;SDS011;28750;59.842;17.584;2023-12-04T01:07:07;3.63;;;2.35;;
43142;SDS011;28750;59.842;17.584;2023-12-04T01:09:35;4.78;;;2.33;;
43142;SDS011;28750;59.842;17.584;2023-12-04T01:12:03;2.80;;;1.48;;
43142;SDS011;28750;59.842;17.584;2023-12-04T01:14:30;3.83;;;1.80;;
43142;SDS011;28750;59.842;17.584;2023-12-04T01:16:58;3.17;;;1.60;;
43142;SDS011;28750;59.842;17.584;2023-12-04T01:19:25;2.80;;;2.08;;
43142;SDS011;28750;59.842;17.584;2023-12-04T01:21:53;2.83;;;1.60;;
43142;SDS011;28750;59.842;17.584;2023-12-04T01:24:20;3.72;;;1.90;;
43142;SDS011;28750;59.842;17.584;2023-12-04T01:26:48;3.08;;;2.05;;
43142;SDS011;28750;59.842;17.584;2023-12-04T01:29:15;4.80;;;2.53;;
43142;SDS011;28750;59.842;17.584;2023-12-04T01:31:42;4.03;;;2.15;;
43142;SDS011;28750;59.842;17.584;2023-12-04T01:34:10;4.60;;;2.50;;
43142;SDS011;28750;59.842;17.584;2023-12-04T01:36:40;4.97;;;2.72;;
43142;SDS011;28750;59.842;17.584;2023-12-04T01:39:08;4.47;;;2.10;;
43142;SDS011;28750;59.842;17.584;2023-12-04T01:41:35;3.75;;;2.20;;
43142;SDS011;28750;59.842;17.584;2023-12-04T01:44:03;5.28;;;2.80;;
43142;SDS011;28750;59.842;17.584;2023-12-04T01:46:30;5.35;;;2.72;;
43142;SDS011;28750;59.842;17.584;2023-12-04T01:48:58;3.45;;;2.20;;
43142;SDS011;28750;59.842;17.584;2023-12-04T01:51:26;6.60;;;3.10;;
43142;SDS011;28750;59.842;17.584;2023-12-04T01:53:53;6.80;;;3.42;;
43142;SDS011;28750;59.842;17.584;2023-12-04T01:56:22;6.80;;;3.47;;
43142;SDS011;28750;59.842;17.584;2023-12-04T01:58:50;7.50;;;2.83;;
43142;SDS011;28750;59.842;17.584;2023-12-04T02:01:18;5.85;;;3.30;;
43142;SDS011;28750;59.842;17.584;2023-12-04T02:03:46;4.72;;;2.70;;
43142;SDS011;28750;59.842;17.584;2023-12-04T02:06:14;4.70;;;2.50;;
43142;SDS011;28750;59.842;17.584;2023-12-04T02:08:45;5.30;;;2.95;;
43142;SDS011;28750;59.842;17.584;2023-12-04T02:11:13;6.93;;;2.92;;
43142;SDS011;28750;59.842;17.584;2023-12-04T02:13:41;4.53;;;2.55;;
43142;SDS011;28750;59.842;17.584;2023-12-04T02:16:09;3.75;;;2.15;;
43142;SDS011;28750;59.842;17.584;2023-12-04T02:18:37;6.38;;;3.03;;
43142;SDS011;28750;59.842;17.584;2023-12-04T02:21:04;5.47;;;2.63;;
43142;SDS011;28750;59.842;17.584;2023-12-04T02:23:32;4.90;;;3.25;;
43142;SDS011;28750;59.842;17.584;2023-12-04T02:26:01;3.83;;;2.35;;
43142;SDS011;28750;59.842;17.584;2023-12-04T02:28:30;4.22;;;2.40;;
43142;SDS011;28750;59.842;17.584;2023-12-04T02:30:59;3.50;;;2.45;;
43142;SDS011;28750;59.842;17.584;2023-12-04T02:33:27;4.93;;;2.83;;
43142;SDS011;28750;59.842;17.584;2023-12-04T02:35:56;4.47;;;2.47;;
43142;SDS011;28750;59.842;17.584;2023-12-04T02:38:24;4.95;;;2.70;;
43142;SDS011;28750;59.842;17.584;2023-12-04T02:40:52;3.40;;;2.47;;
43142;SDS011;28750;59.842;17.584;2023-12-04T02:43:20;5.20;;;2.80;;
43142;SDS011;28750;59.842;17.584;2023-12-04T02:45:47;4.43;;;2.85;;
43142;SDS011;28750;59.842;17.584;2023-12-04T02:48:14;6.82;;;3.13;;
43142;SDS011;28750;59.842;17.584;2023-12-04T02:50:42;4.28;;;2.50;;
43142;SDS011;28750;59.842;17.584;2023-12-04T02:53:09;7.95;;;3.75;;
43142;SDS011;28750;59.842;17.584;2023-12-04T02:55:36;6.22;;;3.50;;
43142;SDS011;28750;59.842;17.584;2023-12-04T02:58:04;6.75;;;3.70;;
43142;SDS011;28750;59.842;17.584;2023-12-04T03:00:31;5.05;;;2.53;;
43142;SDS011;28750;59.842;17.584;2023-12-04T03:02:59;5.63;;;2.80;;
43142;SDS011;28750;59.842;17.584;2023-12-04T03:05:26;5.03;;;3.20;;
43142;SDS011;28750;59.842;17.584;2023-12-04T03:07:54;5.47;;;2.40;;
43142;SDS011;28750;59.842;17.584;2023-12-04T03:10:21;6.75;;;2.85;;
43142;SDS011;28750;59.842;17.584;2023-12-04T03:12:49;5.78;;;3.13;;
43142;SDS011;28750;59.842;17.584;2023-12-04T03:15:16;6.90;;;3.10;;
43142;SDS011;28750;59.842;17.584;2023-12-04T03:17:43;5.68;;;3.05;;
43142;SDS011;28750;59.842;17.584;2023-12-04T03:20:11;5.95;;;3.00;;
43142;SDS011;28750;59.842;17.584;2023-12-04T03:22:38;8.25;;;3.70;;
43142;SDS011;28750;59.842;17.584;2023-12-04T03:25:06;6.95;;;3.45;;
43142;SDS011;28750;59.842;17.584;2023-12-04T03:27:34;6.55;;;3.35;;
43142;SDS011;28750;59.842;17.584;2023-12-04T03:30:01;8.23;;;3.38;;
43142;SDS011;28750;59.842;17.584;2023-12-04T03:32:29;7.07;;;3.03;;
43142;SDS011;28750;59.842;17.584;2023-12-04T03:34:56;5.75;;;3.30;;
43142;SDS011;28750;59.842;17.584;2023-12-04T03:37:24;5.53;;;3.30;;
43142;SDS011;28750;59.842;17.584;2023-12-04T03:39:51;12.80;;;3.33;;
43142;SDS011;28750;59.842;17.584;2023-12-04T03:42:18;5.13;;;2.53;;
43142;SDS011;28750;59.842;17.584;2023-12-04T03:44:46;5.45;;;3.28;;
43142;SDS011;28750;59.842;17.584;2023-12-04T03:47:13;5.75;;;3.05;;
43142;SDS011;28750;59.842;17.584;2023-12-04T03:49:41;5.78;;;2.78;;
43142;SDS011;28750;59.842;17.584;2023-12-04T03:52:08;4.88;;;3.22;;
43142;SDS011;28750;59.842;17.584;2023-12-04T03:54:36;5.10;;;2.95;;
43142;SDS011;28750;59.842;17.584;2023-12-04T03:57:03;5.38;;;2.72;;
43142;SDS011;28750;59.842;17.584;2023-12-04T03:59:31;9.27;;;2.60;;
43142;SDS011;28750;59.842;17.584;2023-12-04T04:01:58;5.63;;;2.88;;
43142;SDS011;28750;59.842;17.584;2023-12-04T04:04:26;5.43;;;3.22;;
43142;SDS011;28750;59.842;17.584;2023-12-04T04:06:54;4.45;;;2.67;;
43142;SDS011;28750;59.842;17.584;2023-12-04T04:09:22;5.63;;;2.97;;
43142;SDS011;28750;59.842;17.584;2023-12-04T04:11:49;6.30;;;2.28;;
43142;SDS011;28750;59.842;17.584;2023-12-04T04:14:17;4.55;;;2.40;;
43142;SDS011;28750;59.842;17.584;2023-12-04T04:16:44;4.75;;;2.70;;
43142;SDS011;28750;59.842;17.584;2023-12-04T04:19:12;5.13;;;2.55;;
43142;SDS011;28750;59.842;17.584;2023-12-04T04:21:39;5.07;;;2.47;;
43142;SDS011;28750;59.842;17.584;2023-12-04T04:24:07;5.55;;;2.70;;
43142;SDS011;28750;59.842;17.584;2023-12-04T04:26:34;5.70;;;3.45;;
43142;SDS011;28750;59.842;17.584;2023-12-04T04:29:02;4.40;;;2.72;;
43142;SDS011;28750;59.842;17.584;2023-12-04T04:31:29;4.40;;;2.72;;
43142;SDS011;28750;59.842;17.584;2023-12-04T04:33:57;5.30;;;2.15;;
43142;SDS011;28750;59.842;17.584;2023-12-04T04:36:24;5.78;;;3.10;;
43142;SDS011;28750;59.842;17.584;2023-12-04T04:38:52;3.97;;;2.78;;
43142;SDS011;28750;59.842;17.584;2023-12-04T04:41:19;6.60;;;2.85;;
43142;SDS011;28750;59.842;17.584;2023-12-04T04:43:47;5.05;;;2.72;;
43142;SDS011;28750;59.842;17.584;2023-12-04T04:46:14;5.13;;;2.88;;
43142;SDS011;28750;59.842;17.584;2023-12-04T04:48:42;5.25;;;2.60;;
43142;SDS011;28750;59.842;17.584;2023-12-04T04:51:09;6.93;;;3.10;;
43142;SDS011;28750;59.842;17.584;2023-12-04T04:53:36;4.70;;;2.35;;
43142;SDS011;28750;59.842;17.584;2023-12-04T04:56:05;5.50;;;2.78;;
43142;SDS011;28750;59.842;17.584;2023-12-04T04:58:32;4.72;;;2.25;;
43142;SDS011;28750;59.842;17.584;2023-12-04T05:01:00;3.53;;;2.25;;
43142;SDS011;28750;59.842;17.584;2023-12-04T05:03:27;5.43;;;2.67;;
43142;SDS011;28750;59.842;17.584;2023-12-04T05:05:55;5.03;;;2.10;;
43142;SDS011;28750;59.842;17.584;2023-12-04T05:08:22;2.80;;;1.70;;
43142;SDS011;28750;59.842;17.584;2023-12-04T05:10:50;3.83;;;2.33;;
43142;SDS011;28750;59.842;17.584;2023-12-04T05:13:17;4.30;;;2.28;;
43142;SDS011;28750;59.842;17.584;2023-12-04T05:15:44;4.32;;;2.42;;
43142;SDS011;28750;59.842;17.584;2023-12-04T05:18:12;4.10;;;2.50;;
43142;SDS011;28750;59.842;17.584;2023-12-04T05:20:39;4.90;;;2.38;;
43142;SDS011;28750;59.842;17.584;2023-12-04T05:23:06;5.75;;;2.42;;
43142;SDS011;28750;59.842;17.584;2023-12-04T05:25:34;3.47;;;2.10;;
43142;SDS011;28750;59.842;17.584;2023-12-04T05:28:01;10.68;;;2.50;;
43142;SDS011;28750;59.842;17.584;2023-12-04T05:30:29;4.30;;;2.20;;
43142;SDS011;28750;59.842;17.584;2023-12-04T05:32:56;2.75;;;2.05;;
43142;SDS011;28750;59.842;17.584;2023-12-04T05:35:24;4.13;;;2.00;;
43142;SDS011;28750;59.842;17.584;2023-12-04T05:37:51;3.00;;;1.95;;
43142;SDS011;28750;59.842;17.584;2023-12-04T05:40:19;3.70;;;2.28;;
43142;SDS011;28750;59.842;17.584;2023-12-04T05:42:46;4.32;;;2.58;;
43142;SDS011;28750;59.842;17.584;2023-12-04T05:45:14;4.35;;;2.35;;
43142;SDS011;28750;59.842;17.584;2023-12-04T05:47:41;4.13;;;2.38;;
43142;SDS011;28750;59.842;17.584;2023-12-04T05:50:09;4.00;;;2.40;;
43142;SDS011;28750;59.842;17.584;2023-12-04T05:52:36;3.80;;;2.22;;
43142;SDS011;28750;59.842;17.584;2023-12-04T05:55:04;4.72;;;2.15;;
43142;SDS011;28750;59.842;17.584;2023-12-04T05:57:31;2.20;;;1.45;;
43142;SDS011;28750;59.842;17.584;2023-12-04T05:59:59;3.03;;;2.20;;
43142;SDS011;28750;59.842;17.584;2023-12-04T06:02:26;3.20;;;1.80;;
43142;SDS011;28750;59.842;17.584;2023-12-04T06:04:55;3.97;;;2.33;;
43142;SDS011;28750;59.842;17.584;2023-12-04T06:07:22;4.93;;;2.13;;
43142;SDS011;28750;59.842;17.584;2023-12-04T06:09:50;4.00;;;2.30;;
43142;SDS011;28750;59.842;17.584;2023-12-04T06:12:17;3.33;;;1.90;;
43142;SDS011;28750;59.842;17.584;2023-12-04T06:14:45;2.92;;;1.95;;
43142;SDS011;28750;59.842;17.584;2023-12-04T06:17:12;4.93;;;2.03;;
43142;SDS011;28750;59.842;17.584;2023-12-04T06:19:39;4.32;;;2.38;;
43142;SDS011;28750;59.842;17.584;2023-12-04T06:22:07;4.18;;;2.20;;
43142;SDS011;28750;59.842;17.584;2023-12-04T06:24:34;5.05;;;2.22;;
43142;SDS011;28750;59.842;17.584;2023-12-04T06:27:02;3.03;;;2.00;;
43142;SDS011;28750;59.842;17.584;2023-12-04T06:29:31;3.08;;;1.83;;
43142;SDS011;28750;59.842;17.584;2023-12-04T06:31:58;2.72;;;1.92;;
43142;SDS011;28750;59.842;17.584;2023-12-04T06:34:26;2.95;;;1.85;;
43142;SDS011;28750;59.842;17.584;2023-12-04T06:36:54;3.75;;;2.00;;
43142;SDS011;28750;59.842;17.584;2023-12-04T06:39:22;3.25;;;2.08;;
43142;SDS011;28750;59.842;17.584;2023-12-04T06:41:50;3.45;;;2.28;;
43142;SDS011;28750;59.842;17.584;2023-12-04T06:44:18;2.88;;;2.15;;
43142;SDS011;28750;59.842;17.584;2023-12-04T06:46:46;2.85;;;2.00;;
43142;SDS011;28750;59.842;17.584;2023-12-04T06:49:17;3.70;;;1.75;;
43142;SDS011;28750;59.842;17.584;2023-12-04T06:51:44;3.83;;;1.85;;
43142;SDS011;28750;59.842;17.584;2023-12-04T06:54:12;2.20;;;1.80;;
43142;SDS011;28750;59.842;17.584;2023-12-04T06:56:39;2.85;;;1.95;;
43142;SDS011;28750;59.842;17.584;2023-12-04T06:59:06;3.47;;;1.85;;
43142;SDS011;28750;59.842;17.584;2023-12-04T07:01:34;2.33;;;1.77;;
43142;SDS011;28750;59.842;17.584;2023-12-04T07:04:01;3.90;;;2.22;;
43142;SDS011;28750;59.842;17.584;2023-12-04T07:06:38;2.75;;;1.52;;
43142;SDS011;28750;59.842;17.584;2023-12-04T07:11:33;3.20;;;2.10;;
43142;SDS011;28750;59.842;17.584;2023-12-04T07:14:01;5.47;;;1.80;;
43142;SDS011;28750;59.842;17.584;2023-12-04T07:16:28;2.13;;;1.70;;
43142;SDS011;28750;59.842;17.584;2023-12-04T07:18:56;2.60;;;1.92;;
43142;SDS011;28750;59.842;17.584;2023-12-04T07:21:23;3.95;;;2.20;;
43142;SDS011;28750;59.842;17.584;2023-12-04T07:23:51;3.55;;;2.28;;
43142;SDS011;28750;59.842;17.584;2023-12-04T07:26:19;3.28;;;2.05;;
43142;SDS011;28750;59.842;17.584;2023-12-04T07:28:46;3.60;;;2.00;;
43142;SDS011;28750;59.842;17.584;2023-12-04T07:31:13;3.47;;;1.90;;
43142;SDS011;28750;59.842;17.584;2023-12-04T07:33:41;2.83;;;1.83;;
43142;SDS011;28750;59.842;17.584;2023-12-04T07:36:09;3.33;;;1.95;;
43142;SDS011;28750;59.842;17.584;2023-12-04T07:38:36;2.58;;;1.65;;
43142;SDS011;28750;59.842;17.584;2023-12-04T07:41:04;4.10;;;2.08;;
43142;SDS011;28750;59.842;17.584;2023-12-04T07:43:31;2.42;;;1.77;;
43142;SDS011;28750;59.842;17.584;2023-12-04T07:45:59;3.08;;;2.28;;
43142;SDS011;28750;59.842;17.584;2023-12-04T07:48:26;3.17;;;2.10;;
43142;SDS011;28750;59.842;17.584;2023-12-04T07:50:55;3.83;;;1.80;;
43142;SDS011;28750;59.842;17.584;2023-12-04T07:53:22;3.75;;;2.10;;
43142;SDS011;28750;59.842;17.584;2023-12-04T07:55:50;4.00;;;1.90;;
43142;SDS011;28750;59.842;17.584;2023-12-04T07:58:17;3.03;;;2.00;;
43142;SDS011;28750;59.842;17.584;2023-12-04T08:00:45;3.28;;;1.88;;
43142;SDS011;28750;59.842;17.584;2023-12-04T08:03:12;3.45;;;2.10;;
43142;SDS011;28750;59.842;17.584;2023-12-04T08:05:40;2.15;;;1.70;;
43142;SDS011;28750;59.842;17.584;2023-12-04T08:08:07;3.53;;;1.98;;
43142;SDS011;28750;59.842;17.584;2023-12-04T08:10:35;3.85;;;2.33;;
43142;SDS011;28750;59.842;17.584;2023-12-04T08:13:02;15.30;;;8.65;;
43142;SDS011;28750;59.842;17.584;2023-12-04T08:15:30;7.72;;;4.95;;
43142;SDS011;28750;59.842;17.584;2023-12-04T08:17:57;15.60;;;8.45;;
43142;SDS011;28750;59.842;17.584;2023-12-04T08:20:26;9.93;;;6.57;;
43142;SDS011;28750;59.842;17.584;2023-12-04T08:22:53;6.95;;;5.25;;
43142;SDS011;28750;59.842;17.584;2023-12-04T08:25:21;6.78;;;4.93;;
43142;SDS011;28750;59.842;17.584;2023-12-04T08:27:48;5.53;;;3.40;;
43142;SDS011;28750;59.842;17.584;2023-12-04T08:30:16;2.83;;;1.50;;
43142;SDS011;28750;59.842;17.584;2023-12-04T08:32:43;1.80;;;1.45;;
43142;SDS011;28750;59.842;17.584;2023-12-04T08:35:12;1.83;;;1.17;;
43142;SDS011;28750;59.842;17.584;2023-12-04T08:37:40;3.13;;;1.60;;
43142;SDS011;28750;59.842;17.584;2023-12-04T08:40:08;3.00;;;1.35;;
43142;SDS011;28750;59.842;17.584;2023-12-04T08:42:35;5.75;;;4.47;;
43142;SDS011;28750;59.842;17.584;2023-12-04T08:45:03;5.68;;;4.07;;
43142;SDS011;28750;59.842;17.584;2023-12-04T08:47:31;2.72;;;1.90;;
43142;SDS011;28750;59.842;17.584;2023-12-04T08:49:59;2.50;;;1.80;;
43142;SDS011;28750;59.842;17.584;2023-12-04T08:52:27;3.90;;;2.90;;
43142;SDS011;28750;59.842;17.584;2023-12-04T08:54:54;4.28;;;3.20;;
43142;SDS011;28750;59.842;17.584;2023-12-04T08:57:22;2.42;;;2.13;;
43142;SDS011;28750;59.842;17.584;2023-12-04T08:59:49;2.35;;;1.70;;
43142;SDS011;28750;59.842;17.584;2023-12-04T09:02:17;1.48;;;1.35;;
43142;SDS011;28750;59.842;17.584;2023-12-04T09:04:44;3.30;;;1.60;;
43142;SDS011;28750;59.842;17.584;2023-12-04T09:07:12;1.30;;;1.20;;
43142;SDS011;28750;59.842;17.584;2023-12-04T09:09:39;3.45;;;2.28;;
43142;SDS011;28750;59.842;17.584;2023-12-04T09:12:07;4.22;;;3.83;;
43142;SDS011;28750;59.842;17.584;2023-12-04T09:14:34;7.22;;;6.03;;
43142;SDS011;28750;59.842;17.584;2023-12-04T09:17:02;2.75;;;1.90;;
43142;SDS011;28750;59.842;17.584;2023-12-04T09:19:30;2.90;;;1.83;;
43142;SDS011;28750;59.842;17.584;2023-12-04T09:21:57;1.55;;;1.45;;
43142;SDS011;28750;59.842;17.584;2023-12-04T09:24:25;1.70;;;1.50;;
43142;SDS011;28750;59.842;17.584;2023-12-04T09:26:52;2.35;;;1.80;;
43142;SDS011;28750;59.842;17.584;2023-12-04T09:29:20;2.63;;;1.73;;
43142;SDS011;28750;59.842;17.584;2023-12-04T09:31:50;2.42;;;2.22;;
43142;SDS011;28750;59.842;17.584;2023-12-04T09:34:18;1.70;;;1.58;;
43142;SDS011;28750;59.842;17.584;2023-12-04T09:36:46;1.73;;;1.58;;
43142;SDS011;28750;59.842;17.584;2023-12-04T09:39:13;1.90;;;1.60;;
43142;SDS011;28750;59.842;17.584;2023-12-04T09:41:41;1.73;;;1.58;;
43142;SDS011;28750;59.842;17.584;2023-12-04T09:44:09;2.22;;;1.70;;
43142;SDS011;28750;59.842;17.584;2023-12-04T09:46:37;1.73;;;1.40;;
43142;SDS011;28750;59.842;17.584;2023-12-04T09:49:05;1.80;;;1.33;;
43142;SDS011;28750;59.842;17.584;2023-12-04T09:51:33;1.88;;;1.48;;
43142;SDS011;28750;59.842;17.584;2023-12-04T09:54:02;2.00;;;1.42;;
43142;SDS011;28750;59.842;17.584;2023-12-04T09:56:31;2.42;;;1.90;;
43142;SDS011;28750;59.842;17.584;2023-12-04T09:59:00;2.20;;;1.20;;
43142;SDS011;28750;59.842;17.584;2023-12-04T10:01:30;1.55;;;1.45;;
43142;SDS011;28750;59.842;17.584;2023-12-04T10:03:58;2.45;;;1.73;;
43142;SDS011;28750;59.842;17.584;2023-12-04T10:06:28;2.33;;;1.33;;
43142;SDS011;28750;59.842;17.584;2023-12-04T10:08:56;2.13;;;1.52;;
43142;SDS011;28750;59.842;17.584;2023-12-04T10:11:24;2.55;;;1.35;;
43142;SDS011;28750;59.842;17.584;2023-12-04T10:13:52;3.85;;;1.70;;
43142;SDS011;28750;59.842;17.584;2023-12-04T10:16:32;1.65;;;1.38;;
43142;SDS011;28750;59.842;17.584;2023-12-04T10:19:16;2.25;;;1.70;;
43142;SDS011;28750;59.842;17.584;2023-12-04T10:21:44;1.80;;;1.38;;
43142;SDS011;28750;59.842;17.584;2023-12-04T10:24:13;1.85;;;1.40;;
43142;SDS011;28750;59.842;17.584;2023-12-04T10:26:55;2.45;;;1.67;;
43142;SDS011;28750;59.842;17.584;2023-12-04T10:29:23;3.10;;;1.92;;
43142;SDS011;28750;59.842;17.584;2023-12-04T10:31:50;3.53;;;1.88;;
43142;SDS011;28750;59.842;17.584;2023-12-04T10:34:21;2.20;;;1.98;;
43142;SDS011;28750;59.842;17.584;2023-12-04T10:36:51;2.53;;;1.73;;
43142;SDS011;28750;59.842;17.584;2023-12-04T10:39:18;2.08;;;1.83;;
43142;SDS011;28750;59.842;17.584;2023-12-04T10:41:47;2.70;;;2.00;;
43142;SDS011;28750;59.842;17.584;2023-12-04T10:44:27;2.47;;;1.98;;
43142;SDS011;28750;59.842;17.584;2023-12-04T10:46:59;2.65;;;1.73;;
43142;SDS011;28750;59.842;17.584;2023-12-04T10:49:27;2.67;;;1.85;;
43142;SDS011;28750;59.842;17.584;2023-12-04T10:51:56;2.80;;;2.03;;
43142;SDS011;28750;59.842;17.584;2023-12-04T10:54:25;3.53;;;2.00;;
43142;SDS011;28750;59.842;17.584;2023-12-04T10:56:52;3.45;;;2.00;;
43142;SDS011;28750;59.842;17.584;2023-12-04T10:59:25;2.60;;;1.90;;
43142;SDS011;28750;59.842;17.584;2023-12-04T11:01:57;3.20;;;2.17;;
43142;SDS011;28750;59.842;17.584;2023-12-04T11:04:25;2.15;;;1.83;;
43142;SDS011;28750;59.842;17.584;2023-12-04T11:06:53;2.40;;;2.15;;
43142;SDS011;28750;59.842;17.584;2023-12-04T11:09:21;4.50;;;2.13;;
43142;SDS011;28750;59.842;17.584;2023-12-04T11:11:53;2.50;;;1.67;;
43142;SDS011;28750;59.842;17.584;2023-12-04T11:14:22;3.63;;;2.08;;
43142;SDS011;28750;59.842;17.584;2023-12-04T11:16:53;2.53;;;1.80;;
43142;SDS011;28750;59.842;17.584;2023-12-04T11:19:34;3.05;;;1.65;;
43142;SDS011;28750;59.842;17.584;2023-12-04T11:22:02;2.45;;;2.10;;
43142;SDS011;28750;59.842;17.584;2023-12-04T11:24:30;2.10;;;1.73;;
43142;SDS011;28750;59.842;17.584;2023-12-04T11:26:58;3.45;;;1.90;;
43142;SDS011;28750;59.842;17.584;2023-12-04T11:29:26;3.03;;;1.73;;
43142;SDS011;28750;59.842;17.584;2023-12-04T11:31:55;2.42;;;1.75;;
43142;SDS011;28750;59.842;17.584;2023-12-04T11:34:23;2.13;;;1.70;;
43142;SDS011;28750;59.842;17.584;2023-12-04T11:36:51;1.85;;;1.50;;
43142;SDS011;28750;59.842;17.584;2023-12-04T11:39:21;2.15;;;1.63;;
43142;SDS011;28750;59.842;17.584;2023-12-04T11:41:48;2.40;;;1.65;;
43142;SDS011;28750;59.842;17.584;2023-12-04T11:44:17;2.67;;;2.03;;
43142;SDS011;28750;59.842;17.584;2023-12-04T11:46:58;2.50;;;1.75;;
43142;SDS011;28750;59.842;17.584;2023-12-04T11:49:29;4.03;;;2.13;;
43142;SDS011;28750;59.842;17.584;2023-12-04T11:52:06;3.50;;;1.95;;
43142;SDS011;28750;59.842;17.584;2023-12-04T11:57:21;4.65;;;1.98;;
43142;SDS011;28750;59.842;17.584;2023-12-04T11:59:49;2.80;;;1.70;;
43142;SDS011;28750;59.842;17.584;2023-12-04T12:02:17;2.15;;;1.90;;
43142;SDS011;28750;59.842;17.584;2023-12-04T12:04:44;8.43;;;2.40;;
43142;SDS011;28750;59.842;17.584;2023-12-04T12:07:11;1.90;;;1.52;;
43142;SDS011;28750;59.842;17.584;2023-12-04T12:09:39;1.83;;;1.15;;
43142;SDS011;28750;59.842;17.584;2023-12-04T12:12:06;1.83;;;1.50;;
43142;SDS011;28750;59.842;17.584;2023-12-04T12:14:34;1.65;;;1.48;;
43142;SDS011;28750;59.842;17.584;2023-12-04T12:17:01;1.90;;;1.50;;
43142;SDS011;28750;59.842;17.584;2023-12-04T12:19:29;2.10;;;1.38;;
43142;SDS011;28750;59.842;17.584;2023-12-04T12:21:56;3.42;;;1.50;;
43142;SDS011;28750;59.842;17.584;2023-12-04T12:24:24;1.33;;;1.13;;
43142;SDS011;28750;59.842;17.584;2023-12-04T12:26:53;4.03;;;1.52;;
43142;SDS011;28750;59.842;17.584;2023-12-04T12:29:20;2.15;;;1.40;;
43142;SDS011;28750;59.842;17.584;2023-12-04T12:31:48;1.55;;;1.35;;
43142;SDS011;28750;59.842;17.584;2023-12-04T12:34:17;2.17;;;1.38;;
43142;SDS011;28750;59.842;17.584;2023-12-04T12:36:44;2.35;;;1.30;;
43142;SDS011;28750;59.842;17.584;2023-12-04T12:39:12;2.47;;;1.35;;
43142;SDS011;28750;59.842;17.584;2023-12-04T12:41:46;3.28;;;1.35;;
43142;SDS011;28750;59.842;17.584;2023-12-04T12:44:14;2.55;;;1.60;;
43142;SDS011;28750;59.842;17.584;2023-12-04T12:46:46;2.00;;;1.42;;
43142;SDS011;28750;59.842;17.584;2023-12-04T12:49:17;1.77;;;1.40;;
43142;SDS011;28750;59.842;17.584;2023-12-04T12:51:45;2.40;;;1.92;;
43142;SDS011;28750;59.842;17.584;2023-12-04T12:54:13;2.33;;;1.58;;
43142;SDS011;28750;59.842;17.584;2023-12-04T12:56:41;4.03;;;1.88;;
43142;SDS011;28750;59.842;17.584;2023-12-04T12:59:08;2.08;;;1.17;;
43142;SDS011;28750;59.842;17.584;2023-12-04T13:01:35;2.03;;;1.40;;
43142;SDS011;28750;59.842;17.584;2023-12-04T13:04:04;4.47;;;1.55;;
43142;SDS011;28750;59.842;17.584;2023-12-04T13:06:32;1.63;;;1.10;;
43142;SDS011;28750;59.842;17.584;2023-12-04T13:08:59;2.20;;;1.63;;
43142;SDS011;28750;59.842;17.584;2023-12-04T13:11:27;1.77;;;1.17;;
43142;SDS011;28750;59.842;17.584;2023-12-04T13:13:54;2.00;;;1.38;;
43142;SDS011;28750;59.842;17.584;2023-12-04T13:16:22;4.63;;;2.40;;
43142;SDS011;28750;59.842;17.584;2023-12-04T13:18:50;8.77;;;4.05;;
43142;SDS011;28750;59.842;17.584;2023-12-04T13:21:17;19.88;;;8.00;;
43142;SDS011;28750;59.842;17.584;2023-12-04T13:23:45;1.50;;;1.40;;
43142;SDS011;28750;59.842;17.584;2023-12-04T13:26:13;2.33;;;1.30;;
43142;SDS011;28750;59.842;17.584;2023-12-04T13:28:40;4.80;;;1.75;;
43142;SDS011;28750;59.842;17.584;2023-12-04T13:31:09;4.57;;;1.63;;
43142;SDS011;28750;59.842;17.584;2023-12-04T13:33:46;3.70;;;1.92;;
43142;SDS011;28750;59.842;17.584;2023-12-04T13:36:22;3.72;;;1.88;;
43142;SDS011;28750;59.842;17.584;2023-12-04T13:39:00;3.80;;;2.00;;
43142;SDS011;28750;59.842;17.584;2023-12-04T13:41:47;5.25;;;2.50;;
43142;SDS011;28750;59.842;17.584;2023-12-04T13:44:32;24.13;;;2.63;;
43142;SDS011;28750;59.842;17.584;2023-12-04T13:47:03;3.67;;;2.22;;
43142;SDS011;28750;59.842;17.584;2023-12-04T13:49:41;3.42;;;1.77;;
43142;SDS011;28750;59.842;17.584;2023-12-04T13:52:15;2.63;;;1.90;;
43142;SDS011;28750;59.842;17.584;2023-12-04T13:54:48;2.10;;;1.40;;
43142;SDS011;28750;59.842;17.584;2023-12-04T13:57:20;3.45;;;2.08;;
43142;SDS011;28750;59.842;17.584;2023-12-04T13:59:54;2.40;;;1.70;;
43142;SDS011;28750;59.842;17.584;2023-12-04T14:02:28;2.47;;;1.60;;
43142;SDS011;28750;59.842;17.584;2023-12-04T14:05:17;3.15;;;1.95;;
43142;SDS011;28750;59.842;17.584;2023-12-04T14:07:55;2.67;;;1.60;;
43142;SDS011;28750;59.842;17.584;2023-12-04T14:10:33;3.45;;;1.73;;
43142;SDS011;28750;59.842;17.584;2023-12-04T14:13:14;3.53;;;1.40;;
43142;SDS011;28750;59.842;17.584;2023-12-04T14:15:48;2.05;;;1.33;;
43142;SDS011;28750;59.842;17.584;2023-12-04T14:18:28;2.55;;;1.60;;
43142;SDS011;28750;59.842;17.584;2023-12-04T14:21:05;2.75;;;1.55;;
43142;SDS011;28750;59.842;17.584;2023-12-04T14:23:41;2.70;;;1.85;;
43142;SDS011;28750;59.842;17.584;2023-12-04T14:26:16;3.03;;;1.83;;
43142;SDS011;28750;59.842;17.584;2023-12-04T14:28:54;2.92;;;1.75;;
43142;SDS011;28750;59.842;17.584;2023-12-04T14:31:33;2.40;;;1.50;;
43142;SDS011;28750;59.842;17.584;2023-12-04T14:34:12;2.00;;;1.60;;
43142;SDS011;28750;59.842;17.584;2023-12-04T14:36:49;4.70;;;1.70;;
43142;SDS011;28750;59.842;17.584;2023-12-04T14:39:25;2.92;;;1.80;;
43142;SDS011;28750;59.842;17.584;2023-12-04T14:41:58;4.78;;;2.10;;
43142;SDS011;28750;59.842;17.584;2023-12-04T14:44:26;4.25;;;1.30;;
43142;SDS011;28750;59.842;17.584;2023-12-04T14:49:28;2.45;;;1.33;;